Lead Hill, AR (72630)

10:45 AM CST on November 22, 2014 (GMT -0600)
Magness Addtition | Change Station
CLOSE
Current Station
Personal Weather Station
Location: Lead Hill, AR
Elevation: 839 ft
Nearby Weather Stations

Elev 839 ft 36.42 °N, 92.91 °W | Updated 4 minutes ago

Overcast
Overcast
55.0 °F
Feels Like 55.0 °F
N
4.3
Wind Variable Wind from SE
Gusts 4.3 mph

Today
High -- | Low -- °F
--% Chance of Precip.
Yesterday
High -- | Low -- °F
Precip. -- in
6:56 AM 4:59 PM
New Moon, 0% visible
Pressure 30.12 in
Visibility 10.0 miles
Clouds Mostly Cloudy 7500 ft
Overcast 9000 ft
Dew Point 51 °F
Humidity 85%
Rainfall 0.10 in
Snow Depth Not available.
UV 1 out of 12
Pollen 1.50 out of 12
Air Quality Not available.
Flu Activity Not available.
METAR KHRO 221553Z AUTO 16012KT 10SM BKN075 OVC090 12/11 A3011 RMK AO2 RAE37 SLP198 P0010 T01170106

More Conditions Fewer Conditions

Pressure 30.12 in
Visibility 10.0 miles
Clouds Mostly Cloudy 7500 ft
Overcast 9000 ft
Dew Point 51 °F
Humidity 85%
Rainfall 0.10 in
Snow Depth Not available.
UV 1 out of 12
Pollen 1.50 out of 12
Air Quality Not available.
Flu Activity Not available.
METAR KHRO 221553Z AUTO 16012KT 10SM BKN075 OVC090 12/11 A3011 RMK AO2 RAE37 SLP198 P0010 T01170106

More Conditions Fewer Conditions

10-Day Weather Forecast

Almanac

Astronomy

Nov. 22, 2014 Rise Set
Actual Time
Civil Twilight
Nautical Twilight
Astronomical Twilight
Moon
Length of Visible Light
Length of Day
Tomorrow will be .
, % of the Moon is Illuminated

Today's Extremes

State Highs State Lows

Community

WunderPhotos

Upload Photos

1,772,855 photos uploaded!

WunderBlogs® & News

Nearby

Air Quality

  Air Quality AQ Index Pollutant
Not available.

Snow Depth

Station Depth Elevation

Earthquake Activity

City Distance Mag. Time & Date
Minimum magnitude displayed is 2.5.

Coastal Water Temperatures

Place Temperature

Nearby Weather Stations